Time;durP1;ratioP1;P1;durP2;ratioP2;P2;SDS_P1;SDS_P2;PMS_P1;PMS_P2;Temp;Humidity;BMP_temperature;BMP_pressure;BME280_temperature;BME280_humidity;BME280_pressure;Samples;Min_cycle;Max_cycle;Signal;HPM_P1;HPM_P2
2022/05/08 00:00:04;;;;;;;;;;;14.30;99.90;;;;;;5057641;28;21411;-83
2022/05/08 00:02:30;;;;;;;;;;;14.20;1.00;;;;;;5077574;28;19954;-83
2022/05/08 00:04:55;;;;;;;;;;;14.20;1.00;;;;;;5074362;28;19916;-83
2022/05/08 00:07:21;;;;;;;;;;;14.20;1.00;;;;;;5057033;28;20003;-83
2022/05/08 00:09:47;;;;;;;;;;;14.20;1.00;;;;;;5058534;28;20393;-82
2022/05/08 00:12:14;;;;;;;;;;;14.10;1.00;;;;;;5078700;28;19936;-83
2022/05/08 00:14:43;;;;;;;;;;;14.10;1.00;;;;;;5064695;28;19923;-83
2022/05/08 00:17:14;;;;;;;;;;;14.10;1.00;;;;;;5075139;28;20384;-83
2022/05/08 00:19:44;;;;;;;;;;;14.10;1.00;;;;;;5073930;28;19913;-83
2022/05/08 00:22:12;;;;;;;;;;;14.00;1.00;;;;;;5074477;28;19938;-83
2022/05/08 00:24:38;;;;;;;;;;;14.00;1.00;;;;;;5071863;28;20007;-83
2022/05/08 00:27:04;;;;;;;;;;;13.90;1.00;;;;;;5074191;28;20410;-82
2022/05/08 00:29:29;;;;;;;;;;;13.80;1.00;;;;;;5056452;28;19917;-83
2022/05/08 00:31:54;;;;;;;;;;;13.80;1.00;;;;;;5056121;28;20261;-83
2022/05/08 00:34:20;;;;;;;;;;;13.70;1.00;;;;;;5056055;28;19920;-83
2022/05/08 00:36:45;;;;;;;;;;;13.60;1.00;;;;;;5052924;28;19995;-83
2022/05/08 00:39:12;;;;;;;;;;;13.60;1.00;;;;;;5073672;28;20372;-82
2022/05/08 00:41:37;;;;;;;;;;;13.60;1.00;;;;;;5075679;28;19986;-83
2022/05/08 00:44:03;;;;;;;;;;;13.60;1.00;;;;;;5073824;28;19916;-83
2022/05/08 00:46:29;;;;;;;;;;;13.60;1.00;;;;;;5067253;28;19954;-83
2022/05/08 00:48:56;;;;;;;;;;;13.60;1.00;;;;;;5059934;28;19912;-83
2022/05/08 00:51:21;;;;;;;;;;;13.60;1.00;;;;;;5059881;28;19920;-83
2022/05/08 00:53:49;;;;;;;;;;;13.60;1.00;;;;;;5076367;28;19917;-83
2022/05/08 00:56:15;;;;;;;;;;;13.60;1.00;;;;;;5074854;28;19920;-83
2022/05/08 00:58:41;;;;;;;;;;;13.60;1.00;;;;;;5075897;28;19913;-83
2022/05/08 01:01:08;;;;;;;;;;;13.60;1.00;;;;;;5073285;28;19916;-83
2022/05/08 01:03:34;;;;;;;;;;;13.60;1.00;;;;;;5057902;28;20412;-83
2022/05/08 01:06:03;;;;;;;;;;;13.70;1.00;;;;;;5056995;28;19962;-82
2022/05/08 01:08:28;;;;;;;;;;;13.70;1.00;;;;;;5073624;28;19917;-83
2022/05/08 01:10:55;;;;;;;;;;;13.70;1.00;;;;;;5058093;28;19912;-83
2022/05/08 01:13:20;;;;;;;;;;;13.70;1.00;;;;;;5077538;28;19913;-83
2022/05/08 01:15:47;;;;;;;;;;;13.80;1.00;;;;;;5081434;28;20034;-83
2022/05/08 01:18:13;;;;;;;;;;;13.80;1.00;;;;;;5060621;28;19924;-83
2022/05/08 01:20:39;;;;;;;;;;;13.90;1.00;;;;;;5060685;28;19928;-83
2022/05/08 01:23:05;;;;;;;;;;;13.90;1.00;;;;;;5058238;28;19917;-83
2022/05/08 01:25:32;;;;;;;;;;;14.00;1.00;;;;;;5071924;28;19999;-83
2022/05/08 01:27:57;;;;;;;;;;;14.10;1.00;;;;;;5074359;28;20196;-83
2022/05/08 01:30:23;;;;;;;;;;;14.10;1.00;;;;;;5075633;28;19920;-83
2022/05/08 01:32:48;;;;;;;;;;;14.20;1.00;;;;;;5058062;28;19915;-83
2022/05/08 01:35:14;;;;;;;;;;;14.30;1.00;;;;;;5058767;28;20381;-84
2022/05/08 01:37:40;;;;;;;;;;;14.30;1.00;;;;;;5075110;28;19927;-84
2022/05/08 01:40:07;;;;;;;;;;;14.30;1.00;;;;;;5073659;28;19923;-84
2022/05/08 01:42:32;;;;;;;;;;;14.40;1.00;;;;;;5069528;28;19920;-84
2022/05/08 01:44:58;;;;;;;;;;;14.40;1.00;;;;;;5056976;28;19916;-84
2022/05/08 01:50:08;;;;;;;;;;;14.40;1.00;;;;;;5073999;28;19958;-84
2022/05/08 01:52:33;;;;;;;;;;;14.30;1.00;;;;;;5059251;28;19913;-84
2022/05/08 01:54:58;;;;;;;;;;;14.40;1.00;;;;;;5055778;28;19999;-84
2022/05/08 01:57:24;;;;;;;;;;;14.40;1.00;;;;;;5073898;28;19913;-84
2022/05/08 01:59:49;;;;;;;;;;;14.30;1.00;;;;;;5074199;28;20292;-85
2022/05/08 02:02:15;;;;;;;;;;;14.40;1.00;;;;;;5057210;28;19916;-85
2022/05/08 02:04:40;;;;;;;;;;;14.40;99.90;;;;;;5060549;28;19966;-84
2022/05/08 02:07:06;;;;;;;;;;;14.30;99.90;;;;;;5061705;28;19916;-84
2022/05/08 02:09:31;;;;;;;;;;;14.30;1.00;;;;;;5079343;28;19966;-84
2022/05/08 02:11:57;;;;;;;;;;;14.30;1.00;;;;;;5060170;28;19924;-84
2022/05/08 02:14:23;;;;;;;;;;;14.30;1.00;;;;;;5061355;28;19948;-84
2022/05/08 02:16:48;;;;;;;;;;;14.30;99.90;;;;;;5060838;28;19967;-84
2022/05/08 02:19:14;;;;;;;;;;;14.20;99.90;;;;;;5059011;28;19917;-84
2022/05/08 02:21:39;;;;;;;;;;;14.20;99.90;;;;;;5078782;28;19999;-84
2022/05/08 02:24:05;;;;;;;;;;;14.20;99.90;;;;;;5078580;28;19912;-84
2022/05/08 02:26:31;;;;;;;;;;;14.10;99.90;;;;;;5074700;28;20014;-84
2022/05/08 02:28:56;;;;;;;;;;;14.10;99.90;;;;;;5061683;28;19987;-85
2022/05/08 02:31:21;;;;;;;;;;;14.10;99.90;;;;;;5059892;28;19913;-84
2022/05/08 02:33:47;;;;;;;;;;;14.20;99.90;;;;;;5061478;28;19922;-84
2022/05/08 02:36:13;;;;;;;;;;;14.10;99.90;;;;;;5059415;28;19923;-84
2022/05/08 02:38:39;;;;;;;;;;;14.10;99.90;;;;;;5062593;28;19913;-83
2022/05/08 02:41:05;;;;;;;;;;;14.10;99.90;;;;;;5075742;28;19912;-84
2022/05/08 02:43:30;;;;;;;;;;;14.10;1.00;;;;;;5075253;28;20020;-84
2022/05/08 02:45:59;;;;;;;;;;;13.90;1.00;;;;;;5061861;28;19965;-84
2022/05/08 02:48:25;;;;;;;;;;;13.80;36.30;;;;;;5079362;28;19912;-84
2022/05/08 02:50:51;;;;;;;;;;;13.70;99.90;;;;;;5076533;28;19920;-83
2022/05/08 02:53:16;;;;;;;;;;;13.70;99.90;;;;;;5075478;28;20841;-85
2022/05/08 02:58:32;;;;;;;;;;;13.50;99.90;;;;;;5077630;28;19966;-83
2022/05/08 03:00:59;;;;;;;;;;;13.50;1.00;;;;;;5060104;28;19916;-85
2022/05/08 03:03:25;;;;;;;;;;;13.50;1.00;;;;;;5077660;28;20277;-83
2022/05/08 03:05:50;;;;;;;;;;;13.50;1.00;;;;;;5078458;28;19913;-83
2022/05/08 03:08:17;;;;;;;;;;;13.50;1.00;;;;;;5055672;28;20370;-85
2022/05/08 03:13:27;;;;;;;;;;;13.40;1.00;;;;;;5078002;28;19922;-84
2022/05/08 03:15:53;;;;;;;;;;;13.40;1.00;;;;;;5059296;28;19951;-84
2022/05/08 03:18:19;;;;;;;;;;;13.40;1.00;;;;;;5056527;28;20474;-84
2022/05/08 03:20:44;;;;;;;;;;;13.40;1.00;;;;;;5060823;28;19951;-83
2022/05/08 03:23:10;;;;;;;;;;;13.40;1.00;;;;;;5061736;28;19917;-83
2022/05/08 03:25:36;;;;;;;;;;;13.40;99.90;;;;;;5082152;28;19916;-84
2022/05/08 03:28:01;;;;;;;;;;;13.40;99.90;;;;;;5064519;28;19916;-85
2022/05/08 03:30:28;;;;;;;;;;;13.40;99.90;;;;;;5076549;28;19917;-84
2022/05/08 03:32:54;;;;;;;;;;;13.40;1.00;;;;;;5077789;28;19916;-84
2022/05/08 03:35:19;;;;;;;;;;;13.40;99.90;;;;;;5057788;28;19917;-84
2022/05/08 03:37:44;;;;;;;;;;;13.40;99.90;;;;;;5060600;28;19908;-84
2022/05/08 03:40:10;;;;;;;;;;;13.40;99.90;;;;;;5057572;28;19920;-84
2022/05/08 03:42:36;;;;;;;;;;;13.40;31.20;;;;;;5061652;28;20323;-84
2022/05/08 03:45:01;;;;;;;;;;;13.40;9.00;;;;;;5074846;28;20328;-84
2022/05/08 03:47:27;;;;;;;;;;;13.30;99.90;;;;;;5075605;28;19923;-84
2022/05/08 03:49:53;;;;;;;;;;;13.30;1.00;;;;;;5076341;28;19909;-84
2022/05/08 03:52:19;;;;;;;;;;;13.30;1.00;;;;;;5075955;28;20056;-84
2022/05/08 03:54:44;;;;;;;;;;;13.30;1.00;;;;;;5075288;28;19939;-85
2022/05/08 03:57:09;;;;;;;;;;;13.30;1.00;;;;;;5074839;28;19965;-84
2022/05/08 03:59:35;;;;;;;;;;;13.30;1.00;;;;;;5056540;28;19916;-83
2022/05/08 04:02:00;;;;;;;;;;;13.30;99.90;;;;;;5073263;28;19927;-84
2022/05/08 04:04:26;;;;;;;;;;;13.30;99.90;;;;;;5073951;28;20011;-84
2022/05/08 04:06:51;;;;;;;;;;;13.30;99.90;;;;;;5057888;28;19916;-84
2022/05/08 04:09:17;;;;;;;;;;;13.30;99.90;;;;;;5057021;28;20003;-84
2022/05/08 04:11:42;;;;;;;;;;;13.20;99.90;;;;;;5077662;28;19912;-84
2022/05/08 04:14:07;;;;;;;;;;;13.20;99.90;;;;;;5076271;28;19993;-84
2022/05/08 04:16:33;;;;;;;;;;;13.30;1.00;;;;;;5074994;28;20377;-83
2022/05/08 04:18:59;;;;;;;;;;;13.30;3.10;;;;;;5071945;28;19916;-83
2022/05/08 04:21:24;;;;;;;;;;;13.30;99.90;;;;;;5057375;28;19920;-84
2022/05/08 04:26:34;;;;;;;;;;;13.20;1.00;;;;;;5073986;28;20002;-84
2022/05/08 04:29:00;;;;;;;;;;;13.30;1.00;;;;;;5075693;28;19916;-84
2022/05/08 04:31:26;;;;;;;;;;;13.30;1.00;;;;;;5076455;28;19928;-84
2022/05/08 04:33:51;;;;;;;;;;;13.30;1.00;;;;;;5055217;28;19998;-84
2022/05/08 04:36:17;;;;;;;;;;;13.30;1.00;;;;;;5056935;28;19916;-84
2022/05/08 04:38:43;;;;;;;;;;;13.30;1.00;;;;;;5076387;28;19912;-84
2022/05/08 04:41:08;;;;;;;;;;;13.30;1.00;;;;;;5058509;28;19934;-84
2022/05/08 04:43:34;;;;;;;;;;;13.30;1.00;;;;;;5075668;28;20400;-84
2022/05/08 04:46:00;;;;;;;;;;;13.30;1.00;;;;;;5057671;28;19917;-84
2022/05/08 04:48:25;;;;;;;;;;;13.40;1.00;;;;;;5075276;28;19974;-84
2022/05/08 04:50:50;;;;;;;;;;;13.40;1.00;;;;;;5077204;28;19912;-84
2022/05/08 04:53:16;;;;;;;;;;;13.40;1.00;;;;;;5055062;28;19912;-84
2022/05/08 04:55:41;;;;;;;;;;;13.40;1.00;;;;;;5075964;28;19912;-84
2022/05/08 04:58:08;;;;;;;;;;;13.50;1.00;;;;;;5057098;28;19923;-83
2022/05/08 05:00:34;;;;;;;;;;;13.50;1.00;;;;;;5059054;28;20383;-83
2022/05/08 05:02:59;;;;;;;;;;;13.50;4.40;;;;;;5056214;28;19913;-85
2022/05/08 05:05:25;;;;;;;;;;;13.50;1.00;;;;;;5075477;28;19948;-84
2022/05/08 05:07:50;;;;;;;;;;;13.60;1.00;;;;;;5059054;28;19912;-84
2022/05/08 05:10:16;;;;;;;;;;;13.60;1.00;;;;;;5058094;28;19912;-84
2022/05/08 05:12:41;;;;;;;;;;;13.60;99.90;;;;;;5056520;28;19948;-84
2022/05/08 05:15:07;;;;;;;;;;;13.60;1.00;;;;;;5074966;28;19917;-83
2022/05/08 05:17:33;;;;;;;;;;;13.60;1.00;;;;;;5057615;28;19913;-84
2022/05/08 05:19:58;;;;;;;;;;;13.60;1.00;;;;;;5074753;28;19912;-84
2022/05/08 05:22:24;;;;;;;;;;;13.60;1.00;;;;;;5075618;28;19920;-84
2022/05/08 05:24:50;;;;;;;;;;;13.60;95.60;;;;;;5069708;28;19917;-84
2022/05/08 05:27:15;;;;;;;;;;;13.60;99.90;;;;;;5053435;28;20000;-84
2022/05/08 05:29:41;;;;;;;;;;;13.50;1.00;;;;;;5076112;28;19924;-85
2022/05/08 05:32:06;;;;;;;;;;;13.70;1.00;;;;;;5057917;28;19959;-84
2022/05/08 05:34:32;;;;;;;;;;;14.00;1.00;;;;;;5076398;28;19912;-84
2022/05/08 05:36:57;;;;;;;;;;;14.20;99.90;;;;;;5054401;28;19912;-82
2022/05/08 05:39:26;;;;;;;;;;;14.40;30.00;;;;;;5074090;28;20372;-82
2022/05/08 05:41:51;;;;;;;;;;;14.70;1.00;;;;;;5059759;28;19912;-82
2022/05/08 05:44:16;;;;;;;;;;;14.80;1.00;;;;;;5076766;28;19927;-82
2022/05/08 05:49:27;;;;;;;;;;;14.80;99.90;;;;;;5073768;28;19928;-82
2022/05/08 05:51:56;;;;;;;;;;;14.80;99.90;;;;;;5074711;28;20326;-83
2022/05/08 05:54:22;;;;;;;;;;;14.90;99.90;;;;;;5074144;28;19913;-83
2022/05/08 05:56:48;;;;;;;;;;;15.10;52.10;;;;;;5054621;28;20593;-83
2022/05/08 05:59:13;;;;;;;;;;;15.30;22.20;;;;;;5060484;28;19919;-82
2022/05/08 06:01:38;;;;;;;;;;;15.50;1.00;;;;;;5076633;28;19932;-83
2022/05/08 06:04:04;;;;;;;;;;;15.60;1.00;;;;;;5076678;28;19916;-82
2022/05/08 06:06:29;;;;;;;;;;;15.80;1.00;;;;;;5073538;28;19913;-82
2022/05/08 06:08:55;;;;;;;;;;;16.00;1.00;;;;;;5076032;28;19923;-83
2022/05/08 06:11:20;;;;;;;;;;;17.10;1.00;;;;;;5056124;28;19913;-82
2022/05/08 06:13:46;;;;;;;;;;;18.10;1.00;;;;;;5074661;28;19913;-82
2022/05/08 06:16:11;;;;;;;;;;;18.10;99.90;;;;;;5076748;28;19912;-83
2022/05/08 06:18:37;;;;;;;;;;;19.40;99.90;;;;;;5074970;28;20380;-82
2022/05/08 06:21:03;;;;;;;;;;;20.40;99.90;;;;;;5074230;28;20026;-82
2022/05/08 06:23:28;;;;;;;;;;;22.40;99.90;;;;;;5071597;28;19932;-84
2022/05/08 06:25:54;;;;;;;;;;;24.30;99.90;;;;;;5066105;28;19989;-80
2022/05/08 06:28:19;;;;;;;;;;;26.00;99.90;;;;;;5066493;28;19920;-80
2022/05/08 06:30:48;;;;;;;;;;;28.30;99.90;;;;;;5057963;28;19919;-81
2022/05/08 06:33:14;;;;;;;;;;;30.30;99.90;;;;;;5059795;28;19971;-81
2022/05/08 06:35:39;;;;;;;;;;;31.20;99.90;;;;;;5076986;28;19952;-80
2022/05/08 06:38:05;;;;;;;;;;;31.60;99.90;;;;;;5061249;28;19913;-80
2022/05/08 06:40:31;;;;;;;;;;;32.30;99.90;;;;;;5078079;28;20284;-81
2022/05/08 06:42:56;;;;;;;;;;;31.80;99.90;;;;;;5074528;28;19916;-81
2022/05/08 06:45:24;;;;;;;;;;;31.60;99.90;;;;;;5075255;28;20400;-81
2022/05/08 06:47:50;;;;;;;;;;;29.70;99.90;;;;;;5078538;28;19920;-81
2022/05/08 06:50:17;;;;;;;;;;;27.80;99.90;;;;;;5055230;28;19913;-80
2022/05/08 06:52:43;;;;;;;;;;;26.10;99.90;;;;;;5072821;28;19913;-80
2022/05/08 06:55:08;;;;;;;;;;;24.50;99.90;;;;;;5068309;28;19916;-80
2022/05/08 06:57:34;;;;;;;;;;;23.70;99.90;;;;;;5067843;28;19913;-80
2022/05/08 07:02:45;;;;;;;;;;;21.70;99.90;;;;;;5073824;28;19937;-83
2022/05/08 07:05:11;;;;;;;;;;;20.80;99.90;;;;;;5056817;28;19920;-83
2022/05/08 07:07:36;;;;;;;;;;;20.70;99.90;;;;;;5055847;28;20311;-82
2022/05/08 07:10:02;;;;;;;;;;;20.10;99.90;;;;;;5075071;28;19920;-82
2022/05/08 07:12:28;;;;;;;;;;;19.50;99.90;;;;;;5052268;28;19913;-81
2022/05/08 07:14:54;;;;;;;;;;;19.20;99.90;;;;;;5074303;28;20396;-82
2022/05/08 07:17:21;;;;;;;;;;;19.10;99.90;;;;;;5072634;28;19958;-81
2022/05/08 07:19:47;;;;;;;;;;;18.70;99.90;;;;;;5053412;28;20372;-82
2022/05/08 07:22:14;;;;;;;;;;;18.60;99.90;;;;;;5070170;28;19970;-82
2022/05/08 07:24:40;;;;;;;;;;;18.40;99.90;;;;;;5058817;28;19923;-84
2022/05/08 07:27:05;;;;;;;;;;;18.10;99.90;;;;;;5053004;28;19920;-85
2022/05/08 07:29:31;;;;;;;;;;;17.70;99.90;;;;;;5061629;28;19923;-84
2022/05/08 07:31:58;;;;;;;;;;;17.60;99.90;;;;;;5071664;28;19917;-84
2022/05/08 07:37:07;;;;;;;;;;;17.30;99.90;;;;;;5071383;28;19961;-84
2022/05/08 07:39:33;;;;;;;;;;;16.90;99.90;;;;;;5066679;28;20394;-84
2022/05/08 07:41:59;;;;;;;;;;;16.70;99.90;;;;;;5075763;28;19913;-84
2022/05/08 07:44:24;;;;;;;;;;;16.60;99.90;;;;;;5059345;28;19974;-83
2022/05/08 07:46:51;;;;;;;;;;;16.40;99.90;;;;;;5056914;28;19916;-84
2022/05/08 07:49:16;;;;;;;;;;;16.30;99.90;;;;;;5043388;28;19915;-83
2022/05/08 07:51:42;;;;;;;;;;;16.10;99.90;;;;;;5053965;28;19940;-84
2022/05/08 07:54:07;;;;;;;;;;;15.80;99.90;;;;;;5080104;28;19943;-84
2022/05/08 07:56:34;;;;;;;;;;;15.70;99.90;;;;;;5081541;28;20441;-84
2022/05/08 07:59:01;;;;;;;;;;;15.60;99.90;;;;;;5057523;28;21968;-82
2022/05/08 08:01:27;;;;;;;;;;;15.60;99.90;;;;;;5078983;28;19964;-83
2022/05/08 08:04:02;;;;;;;;;;;15.50;99.90;;;;;;5050591;28;19925;-83
2022/05/08 08:06:28;;;;;;;;;;;15.40;99.90;;;;;;5058854;28;19913;-83
2022/05/08 08:08:54;;;;;;;;;;;15.30;99.90;;;;;;5068519;28;19920;-85
2022/05/08 08:11:20;;;;;;;;;;;15.30;99.90;;;;;;5071007;28;19912;-86
2022/05/08 08:13:46;;;;;;;;;;;15.30;99.90;;;;;;5060450;28;19913;-84
2022/05/08 08:16:12;;;;;;;;;;;15.30;99.90;;;;;;5088042;28;19927;-85
2022/05/08 08:18:38;;;;;;;;;;;15.30;99.90;;;;;;5068211;28;20346;-84
2022/05/08 08:21:04;;;;;;;;;;;15.20;99.90;;;;;;5077122;28;19912;-84
2022/05/08 08:23:30;;;;;;;;;;;15.20;99.90;;;;;;5062418;28;19919;-84
2022/05/08 08:25:56;;;;;;;;;;;15.20;99.90;;;;;;5075398;28;19915;-85
2022/05/08 08:28:21;;;;;;;;;;;15.40;99.90;;;;;;5070062;28;19924;-84
2022/05/08 08:30:47;;;;;;;;;;;15.50;99.90;;;;;;5059596;28;19979;-83
2022/05/08 08:33:12;;;;;;;;;;;15.60;99.90;;;;;;5078028;28;19916;-84
2022/05/08 08:35:39;;;;;;;;;;;15.60;99.90;;;;;;5055018;28;19908;-83
2022/05/08 08:38:05;;;;;;;;;;;15.70;99.90;;;;;;5049087;28;19936;-84
2022/05/08 08:40:31;;;;;;;;;;;15.80;99.90;;;;;;5047441;28;19948;-84
2022/05/08 08:42:58;;;;;;;;;;;15.90;99.90;;;;;;5059378;28;20051;-83
2022/05/08 08:48:14;;;;;;;;;;;16.40;99.90;;;;;;5058971;28;19915;-85
2022/05/08 08:50:40;;;;;;;;;;;16.80;99.90;;;;;;5057015;28;19912;-84
2022/05/08 08:53:05;;;;;;;;;;;17.10;99.90;;;;;;5078106;28;19908;-84
2022/05/08 08:55:32;;;;;;;;;;;17.90;99.90;;;;;;5070518;28;19915;-83
2022/05/08 08:57:57;;;;;;;;;;;18.70;99.90;;;;;;5061297;28;19973;-84
2022/05/08 09:00:23;;;;;;;;;;;19.50;99.90;;;;;;5076959;28;19943;-83
2022/05/08 09:02:53;;;;;;;;;;;20.50;99.90;;;;;;5079342;28;19921;-85
2022/05/08 09:05:19;;;;;;;;;;;21.20;99.90;;;;;;5060788;28;20003;-83
2022/05/08 09:07:45;;;;;;;;;;;22.10;99.90;;;;;;5078794;28;19959;-83
2022/05/08 09:10:24;;;;;;;;;;;23.00;99.90;;;;;;5077356;28;19924;-84
2022/05/08 09:12:52;;;;;;;;;;;23.90;99.90;;;;;;5062510;28;19915;-83
2022/05/08 09:15:28;;;;;;;;;;;23.80;99.90;;;;;;5061257;28;20463;-85
2022/05/08 09:17:53;;;;;;;;;;;23.70;99.90;;;;;;5072466;28;19908;-85
2022/05/08 09:20:43;;;;;;;;;;;23.60;99.90;;;;;;5061464;28;19924;-84
2022/05/08 09:23:19;;;;;;;;;;;23.40;99.90;;;;;;5055284;28;19912;-84
2022/05/08 09:25:48;;;;;;;;;;;23.30;99.90;;;;;;5083728;28;20392;-84
2022/05/08 09:28:18;;;;;;;;;;;24.10;99.90;;;;;;5067214;28;19920;-85
2022/05/08 09:30:56;;;;;;;;;;;24.90;99.90;;;;;;5061928;28;20134;-81
2022/05/08 09:33:24;;;;;;;;;;;25.20;99.90;;;;;;5065407;28;19916;-82
2022/05/08 09:35:50;;;;;;;;;;;26.00;99.90;;;;;;5065307;28;19920;-81
2022/05/08 09:38:16;;;;;;;;;;;26.60;99.90;;;;;;5064901;28;19934;-82
2022/05/08 09:40:42;;;;;;;;;;;27.30;99.90;;;;;;5049813;28;19962;-82
2022/05/08 09:43:36;;;;;;;;;;;28.00;99.90;;;;;;5081109;28;19923;-82
2022/05/08 09:46:03;;;;;;;;;;;27.50;99.90;;;;;;5064272;28;19908;-81
2022/05/08 09:48:29;;;;;;;;;;;27.30;99.90;;;;;;5079674;28;20000;-81
2022/05/08 09:50:58;;;;;;;;;;;27.30;99.90;;;;;;5088006;28;19958;-81
2022/05/08 09:53:27;;;;;;;;;;;28.40;99.90;;;;;;5087357;28;19908;-82
2022/05/08 09:55:53;;;;;;;;;;;29.20;99.90;;;;;;5065872;28;19908;-82
2022/05/08 09:58:19;;;;;;;;;;;29.30;99.90;;;;;;5083163;28;19999;-81
2022/05/08 10:00:45;;;;;;;;;;;29.80;99.90;;;;;;5066180;28;20362;-81
2022/05/08 10:03:11;;;;;;;;;;;32.10;99.90;;;;;;5084124;28;19908;-82
2022/05/08 10:05:37;;;;;;;;;;;34.40;99.90;;;;;;5065154;28;19919;-82
2022/05/08 10:08:03;;;;;;;;;;;36.10;99.90;;;;;;5055945;28;20458;-82
2022/05/08 10:15:59;;;;;;;;;;;36.60;99.90;;;;;;5084396;28;20327;-82
2022/05/08 10:18:26;;;;;;;;;;;36.40;99.90;;;;;;5084663;28;19908;-82
2022/05/08 10:21:12;;;;;;;;;;;36.20;99.90;;;;;;5066631;28;19909;-81
2022/05/08 10:23:41;;;;;;;;;;;35.70;99.90;;;;;;5083803;28;19919;-81
2022/05/08 10:26:14;;;;;;;;;;;35.60;99.90;;;;;;5083301;28;20288;-82
2022/05/08 10:28:58;;;;;;;;;;;34.90;99.90;;;;;;5065830;28;20372;-81
2022/05/08 10:31:40;;;;;;;;;;;34.40;99.90;;;;;;5070775;28;19908;-81
2022/05/08 10:34:06;;;;;;;;;;;32.90;99.90;;;;;;5082744;28;19915;-81
2022/05/08 10:36:31;;;;;;;;;;;31.70;99.90;;;;;;5083639;28;19951;-81
2022/05/08 10:39:16;;;;;;;;;;;31.50;99.90;;;;;;5081983;28;19940;-82
2022/05/08 10:41:42;;;;;;;;;;;33.10;99.90;;;;;;5081967;28;19909;-82
2022/05/08 10:44:28;;;;;;;;;;;33.30;99.90;;;;;;5083031;28;19962;-81
2022/05/08 10:47:13;;;;;;;;;;;34.00;99.90;;;;;;5067393;28;19951;-82
2022/05/08 10:49:39;;;;;;;;;;;35.50;99.90;;;;;;5081802;28;19982;-82
2022/05/08 10:52:08;;;;;;;;;;;36.50;99.90;;;;;;5082771;28;19912;-81
2022/05/08 10:54:33;;;;;;;;;;;36.40;99.90;;;;;;5083075;28;19995;-81
2022/05/08 10:56:58;;;;;;;;;;;36.80;99.90;;;;;;5083513;28;20467;-81
2022/05/08 10:59:43;;;;;;;;;;;35.90;99.90;;;;;;5083271;28;20307;-81
2022/05/08 11:02:08;;;;;;;;;;;37.00;99.90;;;;;;5045337;28;19912;-82
2022/05/08 11:04:49;;;;;;;;;;;37.10;99.90;;;;;;5062638;28;19965;-83
2022/05/08 11:07:20;;;;;;;;;;;37.60;99.90;;;;;;5080319;28;19955;-82
2022/05/08 11:09:47;;;;;;;;;;;36.30;99.90;;;;;;5064271;28;20015;-81
2022/05/08 11:12:13;;;;;;;;;;;35.90;99.90;;;;;;5082238;28;19915;-81
2022/05/08 11:14:38;;;;;;;;;;;35.90;99.90;;;;;;5064779;28;19976;-82
2022/05/08 11:17:14;;;;;;;;;;;35.80;99.90;;;;;;5082625;28;19915;-81
2022/05/08 11:19:50;;;;;;;;;;;36.20;99.90;;;;;;5064667;28;19951;-81
2022/05/08 11:22:15;;;;;;;;;;;35.20;99.90;;;;;;5075499;28;19919;-81
2022/05/08 11:24:42;;;;;;;;;;;34.10;99.90;;;;;;5081689;28;19913;-82
2022/05/08 11:27:12;;;;;;;;;;;33.50;99.90;;;;;;5063898;28;19912;-81
2022/05/08 11:29:38;;;;;;;;;;;33.20;99.90;;;;;;5063578;28;19919;-82
2022/05/08 11:38:05;;;;;;;;;;;32.60;99.90;;;;;;5082747;28;19958;-81
2022/05/08 11:40:31;;;;;;;;;;;32.50;99.90;;;;;;5062466;28;19913;-81
2022/05/08 11:42:56;;;;;;;;;;;31.90;99.90;;;;;;5079346;28;19918;-81
2022/05/08 11:45:22;;;;;;;;;;;31.40;99.90;;;;;;5079734;28;19913;-81
2022/05/08 11:47:51;;;;;;;;;;;31.30;99.90;;;;;;5080638;28;19915;-81
2022/05/08 11:50:17;;;;;;;;;;;31.00;99.90;;;;;;5082482;28;19919;-81
2022/05/08 11:52:43;;;;;;;;;;;31.00;99.90;;;;;;5080916;28;19909;-80
2022/05/08 11:55:08;;;;;;;;;;;31.10;99.90;;;;;;5076686;28;19913;-80
2022/05/08 11:57:41;;;;;;;;;;;31.20;99.90;;;;;;5062221;28;19913;-80
2022/05/08 12:00:08;;;;;;;;;;;30.80;99.90;;;;;;5081169;28;19912;-80
2022/05/08 12:02:38;;;;;;;;;;;30.80;99.90;;;;;;5080578;28;19908;-81
2022/05/08 12:05:05;;;;;;;;;;;31.10;99.90;;;;;;5080391;28;20035;-80
2022/05/08 12:07:40;;;;;;;;;;;30.90;99.90;;;;;;5079838;28;19915;-80
2022/05/08 12:10:06;;;;;;;;;;;30.80;99.90;;;;;;5081923;28;19908;-81
2022/05/08 12:12:33;;;;;;;;;;;31.00;99.90;;;;;;5081293;28;20044;-81
2022/05/08 12:15:01;;;;;;;;;;;31.30;99.90;;;;;;5081389;28;20368;-80
2022/05/08 12:17:27;;;;;;;;;;;32.20;99.90;;;;;;5062995;28;20015;-80
2022/05/08 12:19:54;;;;;;;;;;;31.80;99.90;;;;;;5080852;28;19940;-81
2022/05/08 12:22:26;;;;;;;;;;;30.80;99.90;;;;;;5062952;28;19909;-81
2022/05/08 12:24:53;;;;;;;;;;;31.10;99.90;;;;;;5063488;28;20376;-81
2022/05/08 12:27:19;;;;;;;;;;;30.50;99.90;;;;;;5080520;28;19959;-80
2022/05/08 12:29:45;;;;;;;;;;;30.50;99.90;;;;;;5062575;28;20292;-80
2022/05/08 12:32:10;;;;;;;;;;;30.40;99.90;;;;;;5063772;28;20002;-81
2022/05/08 12:34:37;;;;;;;;;;;30.80;99.90;;;;;;5062393;28;19912;-81
2022/05/08 12:37:03;;;;;;;;;;;31.50;99.90;;;;;;5080935;28;19908;-81
2022/05/08 12:39:30;;;;;;;;;;;31.10;99.90;;;;;;5081310;28;19908;-81
2022/05/08 12:41:56;;;;;;;;;;;30.80;99.90;;;;;;5080887;28;19908;-82
2022/05/08 12:44:21;;;;;;;;;;;29.70;99.90;;;;;;5080952;28;19973;-80
2022/05/08 12:46:48;;;;;;;;;;;29.00;99.90;;;;;;5080049;28;19913;-81
2022/05/08 12:49:15;;;;;;;;;;;28.40;99.90;;;;;;5080510;28;19969;-81
2022/05/08 12:51:41;;;;;;;;;;;28.70;99.90;;;;;;5080382;28;19940;-81
2022/05/08 12:54:06;;;;;;;;;;;28.80;99.90;;;;;;5080775;28;20300;-81
2022/05/08 12:56:32;;;;;;;;;;;29.40;99.90;;;;;;5054762;28;19913;-82
2022/05/08 13:01:43;;;;;;;;;;;28.40;99.90;;;;;;5083494;28;19934;-81
2022/05/08 13:04:08;;;;;;;;;;;28.40;99.90;;;;;;5061530;28;19920;-81
2022/05/08 13:06:34;;;;;;;;;;;27.80;99.90;;;;;;5079078;28;19971;-79
2022/05/08 13:09:00;;;;;;;;;;;27.10;99.90;;;;;;5061960;28;20377;-82
2022/05/08 13:11:25;;;;;;;;;;;26.60;99.90;;;;;;5057784;28;19912;-83
2022/05/08 13:13:51;;;;;;;;;;;26.80;99.90;;;;;;5056711;28;19921;-82
2022/05/08 13:16:16;;;;;;;;;;;27.10;99.90;;;;;;5078220;28;19917;-82
2022/05/08 13:18:42;;;;;;;;;;;27.20;99.90;;;;;;5060305;28;19940;-82
2022/05/08 13:21:07;;;;;;;;;;;27.30;99.90;;;;;;5058826;28;20000;-82
2022/05/08 13:23:33;;;;;;;;;;;27.60;99.90;;;;;;5057119;28;19917;-81
2022/05/08 13:25:59;;;;;;;;;;;27.40;99.90;;;;;;5061804;28;19912;-82
2022/05/08 13:28:25;;;;;;;;;;;27.40;99.90;;;;;;5078469;28;19921;-82
2022/05/08 13:30:51;;;;;;;;;;;27.30;99.90;;;;;;5074732;28;20002;-82
2022/05/08 13:33:16;;;;;;;;;;;27.60;99.90;;;;;;5067341;28;19913;-82
2022/05/08 13:35:41;;;;;;;;;;;27.20;99.90;;;;;;5065888;28;19909;-82
2022/05/08 13:38:07;;;;;;;;;;;27.50;99.90;;;;;;5078742;28;19920;-83
2022/05/08 13:40:33;;;;;;;;;;;27.50;99.90;;;;;;5060893;28;19913;-82
2022/05/08 13:42:59;;;;;;;;;;;27.80;99.90;;;;;;5061682;28;19995;-82
2022/05/08 13:45:24;;;;;;;;;;;27.80;99.90;;;;;;5060730;28;19990;-83
2022/05/08 13:47:50;;;;;;;;;;;27.90;99.90;;;;;;5061148;28;19915;-83
2022/05/08 13:50:15;;;;;;;;;;;28.10;99.90;;;;;;5050092;28;19908;-83
2022/05/08 13:52:41;;;;;;;;;;;28.20;99.90;;;;;;5059386;28;19916;-83
2022/05/08 13:55:13;;;;;;;;;;;28.30;99.90;;;;;;5041643;28;19915;-83
2022/05/08 13:57:39;;;;;;;;;;;28.50;99.90;;;;;;5055510;28;19912;-84
2022/05/08 14:00:05;;;;;;;;;;;28.40;99.90;;;;;;5076766;28;19939;-81
2022/05/08 14:02:31;;;;;;;;;;;28.40;99.90;;;;;;5077514;28;19937;-81
2022/05/08 14:04:56;;;;;;;;;;;28.50;99.90;;;;;;5072832;28;20446;-82
2022/05/08 14:07:22;;;;;;;;;;;28.30;99.90;;;;;;5064496;28;19943;-82
2022/05/08 14:09:47;;;;;;;;;;;28.20;99.90;;;;;;5081278;28;19919;-82
2022/05/08 14:12:15;;;;;;;;;;;27.50;99.90;;;;;;5081867;28;19916;-83
2022/05/08 14:14:41;;;;;;;;;;;27.20;99.90;;;;;;5059783;28;19920;-83
2022/05/08 14:17:06;;;;;;;;;;;27.00;99.90;;;;;;5070647;28;19943;-81
2022/05/08 14:19:32;;;;;;;;;;;26.90;99.90;;;;;;5076583;28;19920;-81
2022/05/08 14:21:59;;;;;;;;;;;26.80;99.90;;;;;;5073487;28;19908;-82
2022/05/08 14:24:24;;;;;;;;;;;26.70;99.90;;;;;;5082135;28;19912;-82
2022/05/08 14:26:49;;;;;;;;;;;26.60;99.90;;;;;;5063721;28;20015;-82
2022/05/08 14:29:15;;;;;;;;;;;26.60;99.90;;;;;;5065025;28;19916;-83
2022/05/08 14:37:08;;;;;;;;;;;26.30;99.90;;;;;;5079843;28;19918;-83
2022/05/08 14:39:34;;;;;;;;;;;26.20;99.90;;;;;;5075571;28;19912;-82
2022/05/08 14:41:59;;;;;;;;;;;26.20;99.90;;;;;;5059162;28;19927;-82
2022/05/08 14:44:25;;;;;;;;;;;26.00;99.90;;;;;;5077834;28;19966;-84
2022/05/08 14:46:50;;;;;;;;;;;25.90;99.90;;;;;;5060698;28;20365;-82
2022/05/08 14:49:16;;;;;;;;;;;25.70;99.90;;;;;;5080067;28;19952;-84
2022/05/08 14:51:41;;;;;;;;;;;25.60;99.90;;;;;;5061372;28;19920;-82
2022/05/08 14:54:07;;;;;;;;;;;25.60;99.90;;;;;;5059060;28;19955;-83
2022/05/08 14:56:33;;;;;;;;;;;25.60;99.90;;;;;;5078364;28;20022;-83
2022/05/08 14:58:58;;;;;;;;;;;25.20;99.90;;;;;;5059586;28;19966;-81